Thargomindah, Australia
Current Conditions -  °F | °C
As of 2:00 AM on Sunday 26 Oct 2014 (Local Time) from YBCV Reporting Station
Clear Clear  
Wind Chill: 22°   Ceiling: Unl
Heat Index: 22°   Visibility: 6mi
Dew Point:   Wind: 3mph
Humidity: 41%   Direction: 360°N
Pressure: 29.94"   Gusts: NA
Location:  28°S, 143.82°E
Report Text: YBCV 251600Z AUTO 36003KT 9999 // NCD 22/08 Q1014
Loading
Personal Weather Stations






























Interactive Weather Map
Tropical Storm Tracking
New forecast layout! Learn more

10-Day Weather Forecast

Advertisements
Track Severe Weather on mobile